Time;durP1;ratioP1;P1;durP2;ratioP2;P2;SDS_P1;SDS_P2;PMS_P1;PMS_P2;Temp;Humidity;BMP_temperature;BMP_pressure;BME280_temperature;BME280_humidity;BME280_pressure;Samples;Min_cycle;Max_cycle;Signal;HPM_P1;HPM_P2
2022/05/16 00:00:21;;;;;;;8.13;5.70;;;;;;;12.89;76.02;101194.28;10531579;27;20032;-78
2022/05/16 00:05:21;;;;;;;7.97;5.00;;;;;;;12.83;76.14;101185.25;10499957;27;20047;-78
2022/05/16 00:10:22;;;;;;;15.40;5.47;;;;;;;12.81;76.30;101187.78;10505403;27;20380;-79
2022/05/16 00:15:24;;;;;;;19.35;6.00;;;;;;;12.81;76.33;101177.28;10471237;28;20051;-79
2022/05/16 00:20:24;;;;;;;13.10;5.78;;;;;;;12.82;76.43;101178.19;10511445;27;20032;-79
2022/05/16 00:25:25;;;;;;;15.13;5.65;;;;;;;12.78;76.18;101164.94;10525093;27;20064;-79
2022/05/16 00:30:25;;;;;;;12.55;5.65;;;;;;;12.72;76.94;101158.50;10495313;27;20503;-79
2022/05/16 00:35:26;;;;;;;10.13;5.00;;;;;;;12.62;76.92;101150.22;10511588;27;20042;-79
2022/05/16 00:40:26;;;;;;;12.00;6.05;;;;;;;12.54;77.05;101145.47;10519620;27;20488;-79
2022/05/16 00:45:27;;;;;;;10.65;6.55;;;;;;;12.53;78.03;101151.56;10524432;27;20079;-79
2022/05/16 00:50:28;;;;;;;11.93;4.78;;;;;;;12.54;77.54;101146.38;10481626;27;20044;-79
2022/05/16 00:55:33;;;;;;;12.55;5.20;;;;;;;12.59;77.58;101149.22;10467260;28;20029;-78
2022/05/16 01:00:38;;;;;;;6.72;4.55;;;;;;;12.60;77.38;101148.38;10513595;27;20123;-79
2022/05/16 01:05:38;;;;;;;9.25;5.05;;;;;;;12.53;78.50;101147.19;10524639;27;20028;-79
2022/05/16 01:10:39;;;;;;;10.02;5.32;;;;;;;12.51;78.55;101147.97;10506780;27;20056;-79
2022/05/16 01:15:47;;;;;;;10.98;5.05;;;;;;;12.46;78.19;101147.75;10480023;27;20040;-79
2022/05/16 01:21:26;;;;;;;11.02;5.55;;;;;;;12.38;78.67;101157.00;10506237;27;20047;-79
2022/05/16 01:26:27;;;;;;;12.27;5.78;;;;;;;12.29;78.90;101147.91;10523085;27;20063;-80
2022/05/16 01:31:27;;;;;;;15.45;6.82;;;;;;;12.18;79.08;101151.75;10506049;27;20043;-79
2022/05/16 01:36:28;;;;;;;10.07;5.03;;;;;;;12.11;78.93;101150.59;10465803;27;20060;-79
2022/05/16 01:41:29;;;;;;;15.45;5.00;;;;;;;12.14;79.42;101149.81;10484762;27;20040;-79
2022/05/16 01:46:34;;;;;;;11.13;5.97;;;;;;;12.07;79.73;101143.41;10513435;27;20043;-80
2022/05/16 01:51:35;;;;;;;9.30;4.97;;;;;;;12.08;79.93;101139.97;10489978;27;20099;-80
2022/05/16 01:56:35;;;;;;;10.52;4.90;;;;;;;12.15;79.87;101128.91;10483309;28;20079;-79
2022/05/16 02:01:36;;;;;;;11.65;6.15;;;;;;;12.08;80.08;101121.59;10510437;27;20403;-80
2022/05/16 02:06:37;;;;;;;11.13;6.18;;;;;;;11.97;80.43;101120.19;10530532;27;20119;-80
2022/05/16 02:11:37;;;;;;;8.20;6.55;;;;;;;11.92;80.88;101126.94;10493549;27;20040;-79
2022/05/16 02:16:38;;;;;;;7.40;5.57;;;;;;;11.82;81.85;101143.94;10523050;27;20071;-79
2022/05/16 02:27:11;;;;;;;;;;;;;;;11.81;81.38;101124.72;10450495;28;20427;-80
2022/05/16 02:32:12;;;;;;;8.90;5.93;;;;;;;11.80;81.92;101120.28;10493231;27;19921;-80
2022/05/16 02:37:13;;;;;;;10.93;5.45;;;;;;;11.95;82.70;101111.34;10512135;27;20036;-80
2022/05/16 02:42:14;;;;;;;12.85;6.22;;;;;;;11.90;82.49;101111.09;10525481;27;20079;-80
2022/05/16 02:47:16;;;;;;;8.18;4.78;;;;;;;11.70;82.57;101095.34;10474992;27;20042;-80
2022/05/16 02:52:17;;;;;;;10.27;5.85;;;;;;;11.61;82.59;101089.69;10499234;27;20044;-80
2022/05/16 02:57:17;;;;;;;11.15;5.38;;;;;;;11.48;82.92;101089.91;10488046;28;20029;-80
2022/05/16 03:02:18;;;;;;;7.78;5.28;;;;;;;11.38;83.53;101086.88;10507396;27;20051;-79
2022/05/16 03:07:18;;;;;;;10.38;5.20;;;;;;;11.29;84.15;101083.81;10511600;27;20120;-80
2022/05/16 03:12:19;;;;;;;9.60;5.38;;;;;;;11.16;84.52;101087.56;10536045;27;20039;-80
2022/05/16 03:17:19;;;;;;;10.77;5.70;;;;;;;11.08;85.32;101081.94;10532766;27;20115;-80
2022/05/16 03:22:20;;;;;;;9.63;5.80;;;;;;;10.99;85.31;101084.09;10507522;27;20048;-80
2022/05/16 03:27:21;;;;;;;11.23;6.07;;;;;;;10.95;85.95;101084.78;10523399;27;20044;-80
2022/05/16 03:32:22;;;;;;;8.40;5.20;;;;;;;10.90;85.81;101076.72;10526834;27;20044;-80
2022/05/16 03:37:22;;;;;;;8.27;4.85;;;;;;;10.94;86.69;101077.75;10528430;27;20499;-80
2022/05/16 03:42:23;;;;;;;9.20;6.55;;;;;;;11.03;86.99;101088.66;10499693;27;20139;-79
2022/05/16 03:47:24;;;;;;;13.57;5.22;;;;;;;11.09;86.34;101091.59;10486626;28;20043;-79
2022/05/16 03:52:24;;;;;;;9.50;8.25;;;;;;;11.19;86.20;101092.03;10486386;28;20087;-79
2022/05/16 03:57:25;;;;;;;10.25;5.88;;;;;;;11.31;85.77;101085.69;10493430;27;20115;-79
2022/05/16 04:02:25;;;;;;;8.60;6.20;;;;;;;11.36;85.53;101092.88;10518519;27;20036;-78
2022/05/16 04:07:26;;;;;;;13.57;6.45;;;;;;;11.39;85.29;101096.53;10499700;27;20085;-77
2022/05/16 04:12:27;;;;;;;8.60;5.35;;;;;;;11.43;85.16;101077.50;10520270;27;20052;-77
2022/05/16 04:17:30;;;;;;;7.88;4.85;;;;;;;11.54;84.88;101074.47;10515995;27;20119;-81
2022/05/16 04:22:32;;;;;;;13.07;5.70;;;;;;;11.73;84.78;101079.75;10522843;27;20041;-76
2022/05/16 04:27:32;;;;;;;8.88;5.38;;;;;;;12.01;84.63;101067.06;10524146;27;20036;-78
2022/05/16 04:32:33;;;;;;;9.90;5.57;;;;;;;12.32;83.91;101064.06;10521068;27;20040;-77
2022/05/16 04:37:34;;;;;;;8.15;4.70;;;;;;;12.65;81.72;101068.06;10525259;27;20484;-77
2022/05/16 04:42:40;;;;;;;9.60;4.47;;;;;;;12.95;80.90;101066.66;10497933;27;20411;-79
2022/05/16 04:47:41;;;;;;;6.75;4.45;;;;;;;13.41;78.29;101070.25;10501065;27;20075;-78
2022/05/16 04:52:42;;;;;;;7.17;3.87;;;;;;;13.83;76.81;101098.16;10513499;27;20555;-79
2022/05/16 04:57:43;;;;;;;12.65;4.97;;;;;;;14.17;76.70;101095.06;10506225;27;20081;-78
2022/05/16 05:02:44;;;;;;;8.00;4.60;;;;;;;14.38;76.00;101094.94;10517381;27;20064;-79
2022/05/16 05:07:44;;;;;;;10.88;6.05;;;;;;;14.63;75.71;101095.78;10505273;27;20792;-78
2022/05/16 05:18:05;;;;;;;8.27;5.40;;;;;;;15.66;71.33;101084.22;10525155;27;20036;-79
2022/05/16 05:23:06;;;;;;;8.50;5.32;;;;;;;16.52;70.71;101091.91;10465404;28;20041;-79
2022/05/16 05:28:06;;;;;;;7.22;4.20;;;;;;;16.65;68.87;101103.72;10484143;28;20468;-78
2022/05/16 05:33:07;;;;;;;9.13;4.35;;;;;;;16.33;70.34;101101.97;10481614;28;20128;-77
2022/05/16 05:38:09;;;;;;;11.27;5.43;;;;;;;16.10;69.31;101094.31;10500104;28;20032;-77
2022/05/16 05:43:09;;;;;;;9.35;5.63;;;;;;;15.81;73.23;101104.88;10498795;28;20036;-78
2022/05/16 05:48:10;;;;;;;9.10;6.47;;;;;;;15.60;75.04;101113.03;10550072;27;20071;-79
2022/05/16 05:53:10;;;;;;;10.15;4.38;;;;;;;15.42;76.26;101115.97;10523791;27;20923;-77
2022/05/16 05:58:11;;;;;;;7.43;4.20;;;;;;;15.36;75.54;101114.06;10538025;27;20064;-77
2022/05/16 06:03:11;;;;;;;6.72;5.50;;;;;;;15.35;75.76;101106.09;10530274;27;20055;-77
2022/05/16 06:08:12;;;;;;;11.07;7.32;;;;;;;15.31;79.08;101139.38;10552261;27;20039;-75
2022/05/16 06:13:12;;;;;;;13.10;6.90;;;;;;;15.24;80.33;101140.03;10536590;27;20036;-76
2022/05/16 06:18:13;;;;;;;7.25;4.35;;;;;;;15.26;80.59;101131.31;10534628;27;20039;-77
2022/05/16 06:23:13;;;;;;;8.52;4.78;;;;;;;15.17;81.39;101120.47;10560660;27;20115;-76
2022/05/16 06:28:16;;;;;;;10.45;6.18;;;;;;;15.10;82.60;101142.19;10545829;27;20063;-76
2022/05/16 06:33:18;;;;;;;9.35;6.95;;;;;;;15.04;83.99;101155.16;10571211;27;20391;-77
2022/05/16 06:38:20;;;;;;;10.60;6.43;;;;;;;15.14;84.61;101162.53;10550451;27;20043;-76
2022/05/16 06:43:23;;;;;;;10.75;5.90;;;;;;;15.29;84.57;101161.25;10496162;27;20043;-76
2022/05/16 06:48:23;;;;;;;;;;;;;;;15.40;84.30;101171.34;10530002;27;20055;-76
2022/05/16 06:53:27;;;;;;;10.55;6.57;;;;;;;15.46;83.89;101183.81;10534193;27;19927;-77
2022/05/16 06:58:27;;;;;;;10.70;5.95;;;;;;;15.51;85.07;101194.53;10528872;28;20043;-76
2022/05/16 07:03:29;;;;;;;13.27;7.13;;;;;;;15.47;85.81;101192.63;10529414;28;20043;-76
2022/05/16 07:08:29;;;;;;;9.57;6.13;;;;;;;15.66;85.79;101191.47;10511497;28;20040;-77
2022/05/16 07:13:30;;;;;;;9.60;6.88;;;;;;;15.98;84.47;101196.91;10538860;27;20040;-77
2022/05/16 07:18:30;;;;;;;14.20;7.88;;;;;;;16.37;82.64;101198.94;10528195;27;20056;-77
2022/05/16 07:23:30;;;;;;;10.65;6.45;;;;;;;17.00;80.31;101199.81;10528779;27;20127;-76
2022/05/16 07:28:31;;;;;;;13.75;7.05;;;;;;;17.57;77.25;101205.66;10523069;27;20126;-76
2022/05/16 07:33:31;;;;;;;10.13;5.47;;;;;;;18.04;72.26;101206.75;10543647;27;20063;-76
2022/05/16 07:38:33;;;;;;;14.60;8.43;;;;;;;18.44;71.90;101209.38;10540513;27;20066;-78
2022/05/16 07:43:33;;;;;;;9.97;6.00;;;;;;;18.99;65.41;101201.63;10522946;27;20044;-76
2022/05/16 07:48:34;;;;;;;8.75;5.72;;;;;;;19.48;64.29;101206.00;10524683;27;20393;-77
2022/05/16 07:53:34;;;;;;;13.57;7.30;;;;;;;20.00;62.01;101210.34;10526143;28;20040;-77
2022/05/16 07:58:35;;;;;;;8.48;5.45;;;;;;;21.03;56.90;101202.75;10527438;28;20096;-77
2022/05/16 08:03:35;;;;;;;12.17;5.87;;;;;;;22.14;57.06;101213.38;10509122;27;20383;-75
2022/05/16 08:13:55;;;;;;;11.02;5.22;;;;;;;24.37;48.32;101202.88;10527174;28;20487;-75
2022/05/16 08:18:55;;;;;;;12.30;4.93;;;;;;;23.82;50.05;101211.03;10525557;28;20062;-76
2022/05/16 08:23:56;;;;;;;13.23;4.63;;;;;;;24.75;47.62;101217.88;10524752;28;20036;-75
2022/05/16 08:28:56;;;;;;;12.03;5.23;;;;;;;26.04;42.04;101223.06;10516234;27;20043;-76
2022/05/16 08:33:57;;;;;;;9.13;3.87;;;;;;;25.67;45.15;101220.78;10533710;27;20522;-75
2022/05/16 08:44:29;;;;;;;9.60;4.07;;;;;;;29.56;40.79;101225.75;10536677;27;20131;-74
2022/05/16 08:49:32;;;;;;;13.57;4.60;;;;;;;31.51;34.68;101212.75;10492337;27;20044;-72
2022/05/16 08:54:55;;;;;;;10.63;3.72;;;;;;;33.12;32.35;101204.00;10540755;27;20067;-72
2022/05/16 09:00:49;;;;;;;6.10;3.30;;;;;;;31.65;36.91;101210.44;10511631;27;20605;-72
2022/05/16 09:05:52;;;;;;;19.42;5.13;;;;;;;32.39;32.86;101206.00;10493779;27;20131;-74
2022/05/16 09:11:10;;;;;;;9.82;3.72;;;;;;;30.74;36.19;101211.63;10520121;27;20127;-73
2022/05/16 09:16:47;;;;;;;10.07;3.67;;;;;;;30.16;39.54;101221.41;10533780;27;20044;-74
2022/05/16 09:22:03;;;;;;;8.73;3.83;;;;;;;32.17;34.51;101209.50;10527691;27;20047;-74
2022/05/16 09:27:07;;;;;;;4.13;2.33;;;;;;;32.38;33.36;101210.53;10527725;27;20036;-74
2022/05/16 09:32:30;;;;;;;6.35;3.15;;;;;;;31.54;34.95;101212.66;10544898;27;20099;-75
2022/05/16 09:37:31;;;;;;;5.28;2.67;;;;;;;33.60;30.49;101204.69;10553356;27;20526;-73
2022/05/16 09:42:32;;;;;;;6.93;2.90;;;;;;;31.53;34.04;101209.03;10535723;27;20059;-72
2022/05/16 09:47:33;;;;;;;7.13;3.45;;;;;;;30.12;36.48;101211.63;10538230;27;20056;-74
2022/05/16 09:52:42;;;;;;;13.05;2.70;;;;;;;32.16;33.42;101213.16;10540176;27;20422;-74
2022/05/16 09:57:48;;;;;;;7.85;3.53;;;;;;;31.92;32.00;101216.69;10515467;27;20036;-74
2022/05/16 10:03:19;;;;;;;10.18;3.35;;;;;;;31.91;33.21;101222.19;10527591;27;20036;-74
2022/05/16 10:08:25;;;;;;;149.82;134.52;;;;;;;31.81;36.10;101212.63;10533622;27;21643;-74
2022/05/16 10:13:26;;;;;;;8.93;3.78;;;;;;;31.18;35.42;101225.56;10525502;27;20036;-75
2022/05/16 10:18:26;;;;;;;;;;;;;;;30.42;35.53;101224.28;10513948;27;20044;-76
2022/05/16 10:23:41;;;;;;;8.63;4.03;;;;;;;29.24;41.73;101232.81;10546365;27;19973;-75
2022/05/16 10:28:51;;;;;;;7.10;3.55;;;;;;;29.13;37.91;101235.75;10517749;27;20488;-76
2022/05/16 10:34:01;;;;;;;11.85;4.50;;;;;;;29.35;38.19;101252.28;10531182;27;20372;-76
2022/05/16 10:39:13;;;;;;;5.50;2.63;;;;;;;32.58;33.92;101255.81;10517267;27;20131;-76
2022/05/16 10:44:25;;;;;;;7.13;3.90;;;;;;;31.23;35.66;101263.22;10529508;27;20119;-75
2022/05/16 10:49:26;;;;;;;10.93;3.47;;;;;;;29.36;38.95;101277.41;10536641;27;20074;-76
2022/05/16 10:54:29;;;;;;;8.60;4.60;;;;;;;27.39;41.73;101287.53;10542845;27;20035;-76
2022/05/16 10:59:46;;;;;;;8.27;4.63;;;;;;;27.44;43.74;101282.97;10541942;27;20067;-76
2022/05/16 11:04:54;;;;;;;11.75;3.72;;;;;;;30.93;38.81;101287.56;10498020;27;20048;-76
2022/05/16 11:10:06;;;;;;;9.88;3.88;;;;;;;31.66;35.81;101277.13;10541329;27;20032;-76
2022/05/16 11:15:22;;;;;;;10.57;5.35;;;;;;;29.18;39.49;101281.47;10536782;27;20127;-76
2022/05/16 11:20:29;;;;;;;8.93;5.40;;;;;;;28.65;40.78;101290.69;10543578;27;20122;-76
2022/05/16 11:25:39;;;;;;;15.32;7.05;;;;;;;27.05;44.79;101299.69;10547633;27;20043;-75
2022/05/16 11:30:47;;;;;;;12.27;5.90;;;;;;;26.45;46.33;101308.47;10530927;27;20040;-75
2022/05/16 11:35:49;;;;;;;9.40;5.65;;;;;;;26.58;46.92;101312.78;10568479;27;20035;-75
2022/05/16 11:41:12;;;;;;;11.52;5.60;;;;;;;26.59;46.77;101322.63;10552796;27;20039;-77
2022/05/16 11:46:28;;;;;;;7.75;5.70;;;;;;;26.64;47.08;101323.44;10485097;27;20074;-75
2022/05/16 11:51:43;;;;;;;8.57;5.97;;;;;;;26.03;47.23;101330.34;10529274;27;20036;-77
2022/05/16 12:02:22;;;;;;;13.93;5.57;;;;;;;24.41;51.19;101330.34;10528860;27;20126;-76
2022/05/16 12:07:30;;;;;;;13.20;6.40;;;;;;;24.26;53.77;101342.84;10537631;27;20050;-75
2022/05/16 12:12:35;;;;;;;7.93;4.90;;;;;;;24.49;53.42;101344.59;10578391;27;20355;-77
2022/05/16 12:17:36;;;;;;;9.60;5.47;;;;;;;25.06;50.68;101347.09;10524047;27;20101;-74
2022/05/16 12:22:37;;;;;;;13.57;5.83;;;;;;;24.89;51.09;101354.31;10528810;27;20055;-74
2022/05/16 12:27:41;;;;;;;15.77;5.80;;;;;;;24.26;52.55;101363.38;10536948;27;20036;-74
2022/05/16 12:32:42;;;;;;;12.93;7.00;;;;;;;24.67;53.13;101357.03;10532809;27;20055;-75
2022/05/16 12:37:43;;;;;;;7.40;6.57;;;;;;;26.27;48.05;101353.38;10527091;27;20043;-74
2022/05/16 12:43:00;;;;;;;10.17;6.27;;;;;;;26.06;48.64;101358.03;10527928;27;20028;-75
2022/05/16 12:48:13;;;;;;;8.60;7.38;;;;;;;26.40;48.72;101354.16;10522667;27;20383;-75
2022/05/16 12:53:52;;;;;;;20.05;6.85;;;;;;;25.82;48.30;101367.19;10531027;27;20127;-74
2022/05/16 12:58:58;;;;;;;9.50;7.40;;;;;;;25.04;50.94;101373.00;10524415;27;20067;-74
2022/05/16 13:04:18;;;;;;;10.55;6.50;;;;;;;24.46;52.51;101377.59;10529596;27;20516;-75
2022/05/16 13:09:40;;;;;;;12.68;6.70;;;;;;;23.70;53.61;101404.31;10528271;27;20054;-74
2022/05/16 13:15:01;;;;;;;16.13;8.30;;;;;;;22.72;56.63;101408.38;10520218;27;20043;-74
2022/05/16 13:20:08;;;;;;;9.80;8.13;;;;;;;22.11;58.33;101423.91;10552891;27;20043;-75
2022/05/16 13:25:10;;;;;;;16.42;8.27;;;;;;;22.03;58.53;101456.69;10499408;27;20040;-76
2022/05/16 13:30:18;;;;;;;16.40;7.70;;;;;;;22.17;58.26;101454.16;10525632;27;20376;-74
2022/05/16 13:35:44;;;;;;;15.90;8.38;;;;;;;21.87;58.86;101464.53;10511644;27;20040;-73
2022/05/16 13:40:48;;;;;;;10.38;7.85;;;;;;;21.65;58.06;101458.09;10515544;27;20131;-75
2022/05/16 13:46:18;;;;;;;13.57;7.50;;;;;;;21.61;58.31;101461.56;10519453;27;20047;-75
2022/05/16 13:51:19;;;;;;;9.30;7.90;;;;;;;21.09;59.24;101465.38;10492397;28;20055;-76
2022/05/16 13:56:40;;;;;;;11.52;7.72;;;;;;;20.80;60.03;101468.50;10501284;27;20051;-75
2022/05/16 14:01:58;;;;;;;10.35;7.22;;;;;;;20.90;59.35;101469.53;10525299;27;20032;-76
2022/05/16 14:07:04;;;;;;;10.40;7.43;;;;;;;20.86;59.48;101473.00;10538326;27;20032;-76
2022/05/16 14:12:05;;;;;;;11.30;6.10;;;;;;;20.94;59.97;101476.66;10548318;27;20487;-76
2022/05/16 14:17:06;;;;;;;14.15;6.75;;;;;;;21.21;59.84;101483.25;10540978;27;20039;-75
2022/05/16 14:22:10;;;;;;;14.70;7.03;;;;;;;21.41;59.75;101486.19;10533575;27;20063;-75
2022/05/16 14:27:33;;;;;;;16.73;10.32;;;;;;;21.21;60.12;101476.19;10546906;27;20027;-75
2022/05/16 14:32:37;;;;;;;15.52;9.60;;;;;;;21.10;59.91;101486.66;10532432;27;21537;-73
2022/05/16 14:37:37;;;;;;;13.70;8.90;;;;;;;21.04;61.35;101491.91;10525017;27;20036;-73
2022/05/16 14:42:41;;;;;;;19.23;10.90;;;;;;;21.01;61.33;101491.84;10531013;27;20036;-73
2022/05/16 14:47:44;;;;;;;13.23;11.27;;;;;;;21.01;61.71;101493.63;10502273;28;20796;-73
2022/05/16 14:52:50;;;;;;;15.32;11.98;;;;;;;21.01;61.99;101498.97;10521501;28;20043;-74
2022/05/16 14:57:50;;;;;;;16.00;9.45;;;;;;;20.96;61.78;101501.53;10531038;27;20043;-75
2022/05/16 15:08:12;;;;;;;16.50;5.85;;;;;;;21.50;59.30;101494.28;10537833;27;20047;-74
2022/05/16 15:13:13;;;;;;;18.90;7.43;;;;;;;21.44;58.58;101493.31;10531638;27;20550;-74
2022/05/16 15:18:13;;;;;;;15.68;5.07;;;;;;;21.26;57.22;101497.50;10532618;27;20134;-74
2022/05/16 15:23:15;;;;;;;13.10;6.50;;;;;;;21.18;58.11;101513.41;10539263;27;20043;-75
2022/05/16 15:28:16;;;;;;;15.05;5.25;;;;;;;21.07;57.48;101517.66;10534782;27;20503;-75
2022/05/16 15:33:16;;;;;;;12.63;6.30;;;;;;;20.92;57.88;101519.22;10509488;27;20037;-75
2022/05/16 15:38:18;;;;;;;11.30;6.38;;;;;;;20.87;57.63;101512.94;10509379;27;20063;-76
2022/05/16 15:43:18;;;;;;;8.93;5.33;;;;;;;20.82;57.34;101522.63;10526719;27;20079;-74
2022/05/16 15:48:20;;;;;;;10.35;5.70;;;;;;;21.04;57.22;101522.94;10526467;27;20043;-74
2022/05/16 15:53:20;;;;;;;9.45;4.72;;;;;;;21.33;56.61;101531.34;10507808;27;20036;-75
2022/05/16 15:58:21;;;;;;;10.00;4.20;;;;;;;21.56;55.83;101533.41;10528122;27;20043;-76
2022/05/16 16:08:51;;;;;;;10.40;4.03;;;;;;;21.73;54.70;101548.72;10519279;27;20032;-76
2022/05/16 16:13:52;;;;;;;13.77;4.57;;;;;;;21.96;54.96;101544.56;10536387;27;20043;-77
2022/05/16 16:18:52;;;;;;;12.40;5.20;;;;;;;21.97;54.48;101546.34;10482418;28;20097;-76
2022/05/16 16:23:53;;;;;;;12.90;4.47;;;;;;;21.92;53.52;101557.84;10507058;27;20048;-77
2022/05/16 16:28:54;;;;;;;10.20;3.83;;;;;;;21.78;54.24;101553.25;10512575;27;20044;-77
2022/05/16 16:33:54;;;;;;;5.60;3.23;;;;;;;22.09;52.60;101550.94;10516259;27;20139;-81
2022/05/16 16:38:55;;;;;;;5.60;3.60;;;;;;;22.35;51.94;101554.75;10491294;27;20036;-76
2022/05/16 16:43:55;;;;;;;6.33;2.70;;;;;;;22.29;51.75;101548.47;10522204;27;20381;-76
2022/05/16 16:48:56;;;;;;;13.87;6.73;;;;;;;22.27;52.17;101557.34;10500657;28;20131;-78
2022/05/16 16:59:16;;;;;;;6.65;2.70;;;;;;;21.92;51.52;101555.19;10491175;27;20044;-77
2022/05/16 17:04:16;;;;;;;19.70;3.10;;;;;;;21.65;50.90;101568.19;10484021;28;20460;-77
2022/05/16 17:09:17;;;;;;;6.03;2.33;;;;;;;21.42;50.97;101567.84;10504544;27;20118;-78
2022/05/16 17:14:17;;;;;;;7.77;2.60;;;;;;;21.34;51.58;101562.41;10504934;27;20100;-77
2022/05/16 17:19:18;;;;;;;14.27;3.50;;;;;;;21.23;51.33;101572.91;10517960;27;20079;-77
2022/05/16 17:24:18;;;;;;;3.33;2.50;;;;;;;21.12;50.78;101575.41;10515918;27;20093;-78
2022/05/16 17:29:30;;;;;;;4.90;2.25;;;;;;;20.81;51.01;101588.22;10539458;27;20581;-77
2022/05/16 17:34:31;;;;;;;6.40;2.83;;;;;;;20.62;50.70;101586.06;10537819;27;20420;-77
2022/05/16 17:39:32;;;;;;;9.70;2.43;;;;;;;20.50;51.71;101592.09;10531103;27;20121;-76
2022/05/16 17:44:43;;;;;;;7.22;3.08;;;;;;;20.38;51.40;101588.34;10540859;27;20177;-76
2022/05/16 17:49:44;;;;;;;7.00;2.47;;;;;;;20.23;52.26;101601.34;10539360;27;20047;-76
2022/05/16 17:54:49;;;;;;;7.88;2.67;;;;;;;20.05;53.29;101607.16;10533725;27;20050;-77
2022/05/16 17:59:50;;;;;;;6.20;2.75;;;;;;;19.89;53.55;101600.63;10542602;27;20040;-77
2022/05/16 18:04:51;;;;;;;7.15;2.38;;;;;;;19.79;54.06;101603.09;10527933;27;20499;-75
2022/05/16 18:10:17;;;;;;;7.50;4.25;;;;;;;19.80;54.59;101611.94;10529950;27;20044;-77
2022/05/16 18:15:21;;;;;;;12.00;2.95;;;;;;;19.56;54.05;101623.81;10523656;27;20063;-77
2022/05/16 18:20:22;;;;;;;4.88;1.80;;;;;;;19.31;54.06;101617.94;10535322;27;20502;-76
2022/05/16 18:25:23;;;;;;;11.33;7.57;;;;;;;19.07;54.81;101632.41;10526457;27;20036;-76
2022/05/16 18:30:24;;;;;;;7.77;3.10;;;;;;;18.86;55.62;101640.69;10521934;27;20150;-76
2022/05/16 18:35:25;;;;;;;5.30;2.35;;;;;;;18.71;56.16;101633.22;10523895;27;20039;-77
2022/05/16 18:40:29;;;;;;;6.63;1.90;;;;;;;18.47;57.25;101637.00;10524589;27;20147;-77
2022/05/16 18:50:49;;;;;;;5.00;2.17;;;;;;;17.79;62.55;101650.03;10525761;27;20063;-76
2022/05/16 18:55:52;;;;;;;12.75;4.72;;;;;;;17.34;63.93;101659.22;10520204;27;20056;-77
2022/05/16 19:00:53;;;;;;;7.70;2.47;;;;;;;17.01;65.28;101664.34;10522183;27;20101;-76
2022/05/16 19:06:00;;;;;;;6.07;2.70;;;;;;;16.69;66.24;101671.13;10533991;27;20040;-77
2022/05/16 19:11:03;;;;;;;9.30;3.50;;;;;;;16.37;68.65;101669.13;10531349;27;20040;-76
2022/05/16 19:16:10;;;;;;;10.70;2.53;;;;;;;16.09;69.72;101672.50;10525414;27;20419;-77
2022/05/16 19:21:15;;;;;;;6.00;2.97;;;;;;;15.83;70.74;101681.16;10524288;27;20086;-77
2022/05/16 19:26:16;;;;;;;8.52;2.72;;;;;;;15.60;72.20;101684.63;10517146;27;20100;-76
2022/05/16 19:36:36;;;;;;;9.32;3.42;;;;;;;15.16;74.40;101695.16;10517182;27;20044;-75
2022/05/16 19:41:36;;;;;;;7.93;3.67;;;;;;;15.01;74.87;101701.59;10515697;27;20406;-77
2022/05/16 19:46:43;;;;;;;6.00;2.40;;;;;;;14.82;75.46;101711.34;10504160;27;20051;-76
2022/05/16 19:51:56;;;;;;;9.20;2.92;;;;;;;14.64;76.09;101715.75;10517515;27;20044;-77
2022/05/16 19:56:58;;;;;;;11.40;3.55;;;;;;;14.47;78.13;101715.00;10521029;27;20050;-76
2022/05/16 20:02:15;;;;;;;9.88;4.13;;;;;;;14.28;78.55;101727.31;10516954;27;20036;-76
2022/05/16 20:07:30;;;;;;;;;;;;;;;;;;;;;
2022/05/16 20:12:30;;;;;;;12.00;3.95;;;;;;;13.88;79.99;101743.84;10520114;27;20097;-76
2022/05/16 20:17:31;;;;;;;10.23;4.28;;;;;;;13.69;80.93;101749.97;10505214;27;21613;-77
2022/05/16 20:27:58;;;;;;;5.55;3.30;;;;;;;13.37;81.91;101750.13;10503555;27;20089;-76
2022/05/16 20:33:01;;;;;;;14.65;3.78;;;;;;;13.32;82.99;101752.53;10487729;27;20040;-76
2022/05/16 20:38:01;;;;;;;7.25;3.80;;;;;;;13.25;83.53;101758.31;10501074;27;20411;-75
2022/05/16 20:43:03;;;;;;;9.55;4.18;;;;;;;13.23;84.19;101757.34;10505355;27;20050;-75
2022/05/16 20:48:04;;;;;;;5.03;3.37;;;;;;;13.14;84.67;101757.75;10511908;27;20044;-74
2022/05/16 20:53:05;;;;;;;13.10;4.35;;;;;;;13.03;85.01;101767.72;10517734;27;20040;-75
2022/05/16 20:58:06;;;;;;;9.82;4.82;;;;;;;12.98;85.71;101769.22;10491425;27;20040;-75
2022/05/16 21:03:06;;;;;;;10.10;4.90;;;;;;;12.83;85.98;101774.53;10504844;27;20036;-74
2022/05/16 21:08:07;;;;;;;6.53;3.83;;;;;;;12.75;86.90;101779.41;10508170;27;20079;-75
2022/05/16 21:13:11;;;;;;;16.08;4.78;;;;;;;12.65;87.16;101786.69;10517317;27;20048;-74
2022/05/16 21:18:12;;;;;;;11.60;4.57;;;;;;;12.62;87.38;101792.69;10517931;27;20063;-74
2022/05/16 21:23:12;;;;;;;7.45;4.18;;;;;;;12.62;87.67;101796.22;10514210;27;20036;-74
2022/05/16 21:28:13;;;;;;;10.60;4.18;;;;;;;12.62;87.45;101804.09;10510344;27;20035;-74
2022/05/16 21:33:14;;;;;;;7.25;4.55;;;;;;;12.58;87.48;101798.59;10518686;27;20433;-75
2022/05/16 21:38:14;;;;;;;9.38;4.72;;;;;;;12.52;87.84;101807.03;10494175;27;20044;-75
2022/05/16 21:45:19;;;;;;;13.02;6.88;;;;;;;12.44;88.32;101803.09;10502209;27;20032;-74
2022/05/16 21:48:35;;;;;;;7.85;3.60;;;;;;;12.32;88.65;101814.72;10506031;27;20071;-74
2022/05/16 21:53:38;;;;;;;10.95;4.65;;;;;;;12.23;89.32;101816.81;10506319;27;20054;-74
2022/05/16 21:58:39;;;;;;;5.32;4.82;;;;;;;12.14;89.95;101811.97;10510440;27;20586;-74
2022/05/16 22:03:39;;;;;;;12.32;5.47;;;;;;;12.03;89.95;101823.59;10525849;27;20115;-75
2022/05/16 22:08:40;;;;;;;8.75;4.43;;;;;;;11.94;90.56;101823.91;10502929;27;20067;-74
2022/05/16 22:13:40;;;;;;;11.32;5.97;;;;;;;11.88;90.74;101823.56;10502174;27;20085;-74
2022/05/16 22:18:58;;;;;;;9.82;6.28;;;;;;;11.82;91.31;101828.44;10504144;27;20127;-75
2022/05/16 22:23:59;;;;;;;9.35;5.65;;;;;;;11.75;91.60;101825.47;10519912;27;20039;-75
2022/05/16 22:29:00;;;;;;;8.95;6.13;;;;;;;11.72;92.15;101834.91;10500959;27;20107;-74
2022/05/16 22:34:01;;;;;;;13.43;6.75;;;;;;;11.66;92.39;101827.56;10522856;27;20040;-75
2022/05/16 22:39:01;;;;;;;12.60;6.32;;;;;;;11.58;92.39;101829.75;10515641;27;20047;-74
2022/05/16 22:44:02;;;;;;;10.77;7.45;;;;;;;11.51;92.91;101824.97;10520647;27;20028;-74
2022/05/16 22:49:04;;;;;;;12.73;6.53;;;;;;;11.41;92.80;101833.09;10525220;27;20036;-75
2022/05/16 22:54:04;;;;;;;14.83;5.37;;;;;;;11.31;93.46;101827.28;10529504;27;20536;-75
2022/05/16 22:59:05;;;;;;;12.15;7.28;;;;;;;11.22;93.80;101824.13;10530602;27;20336;-75
2022/05/16 23:04:07;;;;;;;11.02;6.65;;;;;;;11.14;94.07;101831.50;10552107;27;20055;-75
2022/05/16 23:09:07;;;;;;;16.48;7.57;;;;;;;11.10;94.66;101834.75;10521331;27;20068;-75
2022/05/16 23:14:08;;;;;;;10.88;7.03;;;;;;;11.06;95.04;101826.63;10531993;27;20174;-74
2022/05/16 23:19:12;;;;;;;17.60;6.75;;;;;;;11.00;94.96;101830.69;10522893;27;20024;-75
2022/05/16 23:24:13;;;;;;;12.52;6.45;;;;;;;10.90;95.13;101830.00;10517560;27;20074;-75
2022/05/16 23:29:13;;;;;;;16.33;8.70;;;;;;;10.79;95.40;101842.44;10512045;27;20032;-75
2022/05/16 23:34:14;;;;;;;19.15;10.35;;;;;;;10.77;95.84;101844.94;10530788;27;20428;-75
2022/05/16 23:39:14;;;;;;;13.15;7.57;;;;;;;10.74;96.21;101846.50;10553146;27;20123;-75
2022/05/16 23:44:15;;;;;;;13.57;8.30;;;;;;;10.68;96.47;101836.53;10500325;27;20139;-75
2022/05/16 23:49:16;;;;;;;14.57;8.13;;;;;;;10.61;96.58;101830.00;10528978;27;20088;-75
2022/05/16 23:54:17;;;;;;;22.05;9.32;;;;;;;10.60;96.94;101836.06;10527893;27;20040;-75
2022/05/16 23:59:17;;;;;;;12.43;8.02;;;;;;;10.58;96.84;101842.91;10524155;27;20127;-77
